KAPN

Alpena County Regional Airport

Alpena, Michigan, USA
METAR KAPN 241054Z AUTO 08006KT 10SM OVC012 13/11 A3030 RMK AO2 SLP262 T01330111
Observed Flight Rules
Sep-24 @ 10:54 UTC (38 minutes ago) Marginal Visual Flight Rules
Wind Visibility Clouds
80° at 6 knots 10 miles
  • Overcast at 1,200' AGL
Temperatures Readings
Current 13°C / 55°F
Dewpoint 11°C / 52°F
Humidity 88%
Altimeter 30.3" Hg
Pressure 1026.2 hPa
Elevation 210
METAR KAPN 241054Z AUTO 08006KT 10SM OVC012 13/11 A3030 RMK AO2 SLP262 T01330111
Observed Flight Rules
Sep-24 @ 10:54 UTC
(38 minutes ago)
MVFR
Wind Visibility
80° at 6 knots 10 miles
Clouds
  • Overcast at 1,200' AGL
Temperature Dewpoint
13°C / 55°F 11°C / 52°F
Humidity Altimeter Pressure
88% 30.3" Hg 1026.2 hPa